createdAt,value
2023-04-25T00:00:04.906Z,0.00
2023-04-25T00:01:06.141Z,0.00
2023-04-25T00:02:06.334Z,0.00
2023-04-25T00:03:07.151Z,0.00
2023-04-25T00:04:08.039Z,0.00
2023-04-25T00:05:08.515Z,0.00
2023-04-25T00:06:09.592Z,0.00
2023-04-25T00:07:09.810Z,0.00
2023-04-25T00:08:10.533Z,0.00
2023-04-25T00:09:11.281Z,0.00
2023-04-25T00:10:11.955Z,0.00
2023-04-25T00:11:13.085Z,0.00
2023-04-25T00:12:13.296Z,0.00
2023-04-25T00:13:13.996Z,0.00
2023-04-25T00:14:14.701Z,0.00
2023-04-25T00:15:15.405Z,0.00
2023-04-25T00:16:16.761Z,0.00
2023-04-25T00:17:16.934Z,0.00
2023-04-25T00:18:17.640Z,0.00
2023-04-25T00:19:18.357Z,0.00
2023-04-25T00:20:19.071Z,0.00
2023-04-25T00:21:20.085Z,0.00
2023-04-25T00:22:20.295Z,0.00
2023-04-25T00:23:20.996Z,0.00
2023-04-25T00:24:21.708Z,0.00
2023-04-25T00:25:22.425Z,0.00
2023-04-25T00:26:23.591Z,0.00
2023-04-25T00:27:23.811Z,0.00
2023-04-25T00:28:24.509Z,0.00
2023-04-25T00:29:25.211Z,0.00
2023-04-25T00:30:25.914Z,0.00
2023-04-25T00:31:27.152Z,0.00
2023-04-25T00:32:27.323Z,0.00
2023-04-25T00:33:28.003Z,0.00
2023-04-25T00:34:28.718Z,0.00
2023-04-25T00:35:29.439Z,0.00
2023-04-25T00:36:30.588Z,0.00
2023-04-25T00:37:30.791Z,0.00
2023-04-25T00:38:31.490Z,0.00
2023-04-25T00:39:32.210Z,0.00
2023-04-25T00:40:32.916Z,0.00
2023-04-25T00:41:34.097Z,0.00
2023-04-25T00:42:34.309Z,0.00
2023-04-25T00:43:34.993Z,0.00
2023-04-25T00:44:35.706Z,0.00
2023-04-25T00:45:36.404Z,0.00
2023-04-25T00:46:37.693Z,0.00
2023-04-25T00:47:37.880Z,0.00
2023-04-25T00:48:38.564Z,0.00
2023-04-25T00:49:39.271Z,0.00
2023-04-25T00:50:39.995Z,0.00
2023-04-25T00:51:41.090Z,0.00
2023-04-25T00:52:41.296Z,0.00
2023-04-25T00:53:41.994Z,0.00
2023-04-25T00:54:42.698Z,0.00
2023-04-25T00:55:43.398Z,0.00
2023-04-25T00:56:44.608Z,0.00
2023-04-25T00:57:44.820Z,0.00
2023-04-25T00:58:45.515Z,0.00
2023-04-25T00:59:46.223Z,0.00
2023-04-25T01:00:46.968Z,0.00
2023-04-25T01:01:48.152Z,0.00
2023-04-25T01:02:48.458Z,0.00
2023-04-25T01:03:49.448Z,0.00
2023-04-25T01:04:49.811Z,0.00
2023-04-25T01:05:50.519Z,0.00
2023-04-25T01:06:51.584Z,0.00
2023-04-25T01:07:51.802Z,0.00
2023-04-25T01:08:52.492Z,0.00
2023-04-25T01:09:53.184Z,0.00
2023-04-25T01:10:53.894Z,0.00
2023-04-25T01:11:55.095Z,0.00
2023-04-25T01:12:55.290Z,0.00
2023-04-25T01:13:56.012Z,0.00
2023-04-25T01:14:56.693Z,0.00
2023-04-25T01:15:57.394Z,0.00
2023-04-25T01:16:58.682Z,0.00
2023-04-25T01:17:59.007Z,0.00
2023-04-25T01:18:59.664Z,0.00
2023-04-25T01:20:00.385Z,0.00
2023-04-25T01:21:01.082Z,0.00
2023-04-25T01:22:02.090Z,0.00
2023-04-25T01:23:02.314Z,0.00
2023-04-25T01:24:02.990Z,0.00
2023-04-25T01:25:03.708Z,0.00
2023-04-25T01:26:04.403Z,0.00
2023-04-25T01:27:05.598Z,0.00
2023-04-25T01:28:05.803Z,0.00
2023-04-25T01:29:06.500Z,0.00
2023-04-25T01:30:07.214Z,0.00
2023-04-25T01:31:07.925Z,0.00
2023-04-25T01:32:09.166Z,0.00
2023-04-25T01:33:09.384Z,0.00
2023-04-25T01:34:10.109Z,0.00
2023-04-25T01:35:10.814Z,0.00
2023-04-25T01:36:11.534Z,0.00
2023-04-25T01:37:12.590Z,0.00
2023-04-25T01:38:12.792Z,0.00
2023-04-25T01:39:13.494Z,0.00
2023-04-25T01:40:14.212Z,0.00
2023-04-25T01:41:14.907Z,0.00
2023-04-25T01:42:16.089Z,0.00
2023-04-25T01:43:16.305Z,0.00
2023-04-25T01:44:17.004Z,0.00
2023-04-25T01:45:17.698Z,0.00
2023-04-25T01:46:18.451Z,0.00
2023-04-25T01:47:19.610Z,0.00
2023-04-25T01:48:19.802Z,0.00
2023-04-25T01:49:20.501Z,0.00
2023-04-25T01:50:21.224Z,0.00
2023-04-25T01:51:21.925Z,0.00
2023-04-25T01:52:23.100Z,0.00
2023-04-25T01:53:23.303Z,0.00
2023-04-25T01:54:23.998Z,0.00
2023-04-25T01:55:24.704Z,0.00
2023-04-25T01:56:25.405Z,0.00
2023-04-25T01:57:26.613Z,0.00
2023-04-25T01:58:26.814Z,0.00
2023-04-25T01:59:27.525Z,0.00
2023-04-25T02:00:28.219Z,0.00
2023-04-25T02:01:28.927Z,0.00
2023-04-25T02:02:30.319Z,0.00
2023-04-25T02:03:30.264Z,0.00
2023-04-25T02:04:31.091Z,0.00
2023-04-25T02:05:31.764Z,0.00
2023-04-25T02:06:32.478Z,0.00
2023-04-25T02:07:33.600Z,0.00
2023-04-25T02:08:33.799Z,0.00
2023-04-25T02:09:34.502Z,0.00
2023-04-25T02:10:35.215Z,0.00
2023-04-25T02:11:35.908Z,0.00
2023-04-25T02:12:37.093Z,0.00
2023-04-25T02:13:37.317Z,0.00
2023-04-25T02:14:38.002Z,0.00
2023-04-25T02:15:38.716Z,0.00
2023-04-25T02:16:39.478Z,0.00
2023-04-25T02:17:40.656Z,0.00
2023-04-25T02:18:40.819Z,0.00
2023-04-25T02:19:41.523Z,0.00
2023-04-25T02:20:42.226Z,0.00
2023-04-25T02:21:42.956Z,0.00
2023-04-25T02:22:44.095Z,0.00
2023-04-25T02:23:44.301Z,0.00
2023-04-25T02:24:45.000Z,0.00
2023-04-25T02:25:45.705Z,0.00
2023-04-25T02:26:46.407Z,0.00
2023-04-25T02:27:47.608Z,0.00
2023-04-25T02:28:47.804Z,0.00
2023-04-25T02:29:48.521Z,0.00
2023-04-25T02:30:49.231Z,0.00
2023-04-25T02:31:49.999Z,0.00
2023-04-25T02:32:51.161Z,0.00
2023-04-25T02:33:51.637Z,0.00
2023-04-25T02:34:51.964Z,0.00
2023-04-25T02:35:52.654Z,0.00
2023-04-25T02:36:53.412Z,0.00
2023-04-25T02:37:54.096Z,0.00
2023-04-25T02:38:54.803Z,0.00
2023-04-25T02:39:55.523Z,0.00
2023-04-25T02:40:56.224Z,0.00
2023-04-25T02:41:56.934Z,0.00
2023-04-25T02:42:58.096Z,0.00
2023-04-25T02:43:58.296Z,0.00
2023-04-25T02:44:59.000Z,0.00
2023-04-25T02:45:59.712Z,0.00
2023-04-25T02:47:00.437Z,0.00
2023-04-25T02:48:01.688Z,0.00
2023-04-25T02:49:01.880Z,0.00
2023-04-25T02:50:02.594Z,0.00
2023-04-25T02:51:03.279Z,0.00
2023-04-25T02:52:03.993Z,0.00
2023-04-25T02:53:05.098Z,0.00
2023-04-25T02:54:05.329Z,0.00
2023-04-25T02:55:06.006Z,0.00
2023-04-25T02:56:06.719Z,0.00
2023-04-25T02:57:07.421Z,0.00
2023-04-25T02:58:08.623Z,0.00
2023-04-25T02:59:08.828Z,0.00
2023-04-25T03:00:09.529Z,0.00
2023-04-25T03:01:10.285Z,0.00
2023-04-25T03:02:11.041Z,0.00
2023-04-25T03:03:12.222Z,0.00
2023-04-25T03:04:12.517Z,0.00
2023-04-25T03:05:13.198Z,0.00
2023-04-25T03:06:13.908Z,0.00
2023-04-25T03:07:14.626Z,0.00
2023-04-25T03:08:15.600Z,0.00
2023-04-25T03:09:15.805Z,0.00
2023-04-25T03:10:16.515Z,0.00
2023-04-25T03:11:17.224Z,0.00
2023-04-25T03:12:17.923Z,0.00
2023-04-25T03:13:19.125Z,0.00
2023-04-25T03:14:19.319Z,0.00
2023-04-25T03:15:20.029Z,0.00
2023-04-25T03:16:20.757Z,0.00
2023-04-25T03:17:21.424Z,0.00
2023-04-25T03:18:22.620Z,0.00
2023-04-25T03:19:22.800Z,0.00
2023-04-25T03:20:23.505Z,0.00
2023-04-25T03:21:24.217Z,0.00
2023-04-25T03:22:24.937Z,0.00
2023-04-25T03:23:25.603Z,0.00
2023-04-25T03:24:26.300Z,0.00
2023-04-25T03:25:27.002Z,0.00
2023-04-25T03:26:27.706Z,0.00
2023-04-25T03:27:28.429Z,0.00
2023-04-25T03:28:29.619Z,0.00
2023-04-25T03:29:29.805Z,0.00
2023-04-25T03:30:30.511Z,0.00
2023-04-25T03:31:31.227Z,0.00
2023-04-25T03:32:31.987Z,0.00
2023-04-25T03:33:33.127Z,0.00
2023-04-25T03:34:33.309Z,0.00
2023-04-25T03:35:34.017Z,0.00
2023-04-25T03:36:34.744Z,0.00
2023-04-25T03:37:35.438Z,0.00
2023-04-25T03:38:36.611Z,0.00
2023-04-25T03:39:36.823Z,0.00
2023-04-25T03:40:37.518Z,0.00
2023-04-25T03:41:38.229Z,0.00
2023-04-25T03:42:38.927Z,0.00
2023-04-25T03:43:40.105Z,0.00
2023-04-25T03:44:40.306Z,0.00
2023-04-25T03:45:41.070Z,0.00
2023-04-25T03:46:41.721Z,0.00
2023-04-25T03:47:42.461Z,0.00
2023-04-25T03:48:43.632Z,0.00
2023-04-25T03:49:43.807Z,0.00
2023-04-25T03:50:44.509Z,0.00
2023-04-25T03:51:45.208Z,0.00
2023-04-25T03:52:45.932Z,0.00
2023-04-25T03:53:47.104Z,0.00
2023-04-25T03:54:47.306Z,0.00
2023-04-25T03:55:48.016Z,0.00
2023-04-25T03:56:48.716Z,0.00
2023-04-25T03:57:49.419Z,0.00
2023-04-25T03:58:50.620Z,0.00
2023-04-25T03:59:50.820Z,0.00
2023-04-25T04:00:51.523Z,0.00
2023-04-25T04:01:52.224Z,0.00
2023-04-25T04:02:53.145Z,0.00
2023-04-25T04:03:54.713Z,0.00
2023-04-25T04:04:54.899Z,0.00
2023-04-25T04:05:55.201Z,0.00
2023-04-25T04:06:55.888Z,0.00
2023-04-25T04:07:56.609Z,0.00
2023-04-25T04:08:57.608Z,0.00
2023-04-25T04:09:57.803Z,0.00
2023-04-25T04:10:58.518Z,0.00
2023-04-25T04:11:59.219Z,0.00
2023-04-25T04:12:59.910Z,0.00
2023-04-25T04:14:01.105Z,0.00
2023-04-25T04:15:01.330Z,0.00
2023-04-25T04:16:02.114Z,0.00
2023-04-25T04:17:02.776Z,0.00
2023-04-25T04:18:03.550Z,0.00
2023-04-25T04:19:04.670Z,0.00
2023-04-25T04:20:04.841Z,0.00
2023-04-25T04:21:05.537Z,0.00
2023-04-25T04:22:06.243Z,0.00
2023-04-25T04:23:06.964Z,0.00
2023-04-25T04:24:08.112Z,0.00
2023-04-25T04:25:08.312Z,0.00
2023-04-25T04:26:09.013Z,0.00
2023-04-25T04:27:09.729Z,0.00
2023-04-25T04:28:10.422Z,0.00
2023-04-25T04:29:11.608Z,0.00
2023-04-25T04:30:11.825Z,0.00
2023-04-25T04:31:12.534Z,0.00
2023-04-25T04:32:13.278Z,0.00
2023-04-25T04:33:14.068Z,0.00
2023-04-25T04:34:15.120Z,0.00
2023-04-25T04:35:15.306Z,0.00
2023-04-25T04:36:16.014Z,0.00
2023-04-25T04:37:16.728Z,0.00
2023-04-25T04:38:17.444Z,0.00
2023-04-25T04:39:18.608Z,0.00
2023-04-25T04:40:18.810Z,0.00
2023-04-25T04:41:19.507Z,0.00
2023-04-25T04:42:20.214Z,0.00
2023-04-25T04:43:20.922Z,0.00
2023-04-25T04:44:22.105Z,0.00
2023-04-25T04:45:22.321Z,0.00
2023-04-25T04:46:23.115Z,0.00
2023-04-25T04:47:23.845Z,0.00
2023-04-25T04:48:24.523Z,0.00
2023-04-25T04:49:25.622Z,0.00
2023-04-25T04:50:25.816Z,0.00
2023-04-25T04:51:26.524Z,0.00
2023-04-25T04:52:27.219Z,0.00
2023-04-25T04:53:27.938Z,0.00
2023-04-25T04:54:28.609Z,0.00
2023-04-25T04:55:29.332Z,0.00
2023-04-25T04:56:30.023Z,0.00
2023-04-25T04:57:30.735Z,0.00
2023-04-25T04:58:31.426Z,0.00
2023-04-25T04:59:32.639Z,0.00
2023-04-25T05:00:32.877Z,0.00
2023-04-25T05:01:33.607Z,0.00
2023-04-25T05:02:34.456Z,0.00
2023-04-25T05:03:35.316Z,0.00
2023-04-25T05:04:36.185Z,0.00
2023-04-25T05:05:36.879Z,0.00
2023-04-25T05:06:37.588Z,0.00
2023-04-25T05:07:38.298Z,0.00
2023-04-25T05:08:39.015Z,0.00
2023-04-25T05:09:40.111Z,0.00
2023-04-25T05:10:40.310Z,0.00
2023-04-25T05:11:41.022Z,0.00
2023-04-25T05:12:41.720Z,0.00
2023-04-25T05:13:42.434Z,0.00
2023-04-25T05:14:43.605Z,0.00
2023-04-25T05:15:43.833Z,0.00
2023-04-25T05:16:44.659Z,0.00
2023-04-25T05:17:45.350Z,0.00
2023-04-25T05:18:46.029Z,0.00
2023-04-25T05:19:47.135Z,0.00
2023-04-25T05:20:47.313Z,0.00
2023-04-25T05:21:48.013Z,0.00
2023-04-25T05:22:48.718Z,0.00
2023-04-25T05:23:50.029Z,0.00
2023-04-25T05:24:50.610Z,0.00
2023-04-25T05:25:50.824Z,0.00
2023-04-25T05:26:51.533Z,0.00
2023-04-25T05:27:52.230Z,0.00
2023-04-25T05:28:52.945Z,0.00
2023-04-25T05:29:54.126Z,0.00
2023-04-25T05:30:54.322Z,0.00
2023-04-25T05:31:55.038Z,0.00
2023-04-25T05:32:55.747Z,0.00
2023-04-25T05:33:56.426Z,0.00
2023-04-25T05:34:57.661Z,0.00
2023-04-25T05:35:57.818Z,0.00
2023-04-25T05:36:58.518Z,0.00
2023-04-25T05:37:59.223Z,0.00
2023-04-25T05:38:59.948Z,0.00
2023-04-25T05:40:01.153Z,0.00
2023-04-25T05:41:01.323Z,0.00
2023-04-25T05:42:02.021Z,0.00
2023-04-25T05:43:02.724Z,0.00
2023-04-25T05:44:03.452Z,0.00
2023-04-25T05:45:04.609Z,0.00
2023-04-25T05:46:04.850Z,0.00
2023-04-25T05:47:05.530Z,0.00
2023-04-25T05:48:06.325Z,0.00
2023-04-25T05:49:07.011Z,0.00
2023-04-25T05:50:08.145Z,0.00
2023-04-25T05:51:08.308Z,0.00
2023-04-25T05:52:09.021Z,0.00
2023-04-25T05:53:09.719Z,0.00
2023-04-25T05:54:10.464Z,0.00
2023-04-25T05:55:11.612Z,0.00
2023-04-25T05:56:11.817Z,0.00
2023-04-25T05:57:12.509Z,0.00
2023-04-25T05:58:13.213Z,0.00
2023-04-25T05:59:13.921Z,0.00
2023-04-25T06:00:15.123Z,0.00
2023-04-25T06:01:15.336Z,0.00
2023-04-25T06:02:16.110Z,0.00
2023-04-25T06:03:20.236Z,0.00
2023-04-25T06:04:17.679Z,0.00
2023-04-25T06:05:18.291Z,0.00
2023-04-25T06:06:18.467Z,0.00
2023-04-25T06:07:19.176Z,0.00
2023-04-25T06:08:19.873Z,0.00
2023-04-25T06:09:20.591Z,0.00
2023-04-25T06:10:21.606Z,0.00
2023-04-25T06:11:21.805Z,0.00
2023-04-25T06:12:22.522Z,0.00
2023-04-25T06:13:23.211Z,0.00
2023-04-25T06:14:23.946Z,0.00
2023-04-25T06:15:28.696Z,0.00
2023-04-25T06:16:25.293Z,0.00
2023-04-25T06:17:26.025Z,0.00
2023-04-25T06:18:26.707Z,0.00
2023-04-25T06:19:27.407Z,0.00
2023-04-25T06:20:28.148Z,0.00
2023-04-25T06:21:28.823Z,0.00
2023-04-25T06:22:29.531Z,0.00
2023-04-25T06:23:30.241Z,0.00
2023-04-25T06:24:30.964Z,0.00
2023-04-25T06:25:31.651Z,0.00
2023-04-25T06:26:32.353Z,0.00
2023-04-25T06:27:33.051Z,0.00
2023-04-25T06:28:33.813Z,0.00
2023-04-25T06:29:34.462Z,0.00
2023-04-25T06:30:35.160Z,0.00
2023-04-25T06:31:35.931Z,0.00
2023-04-25T06:32:36.633Z,0.00
2023-04-25T06:33:37.315Z,0.00
2023-04-25T06:34:38.033Z,0.00
2023-04-25T06:35:39.932Z,0.00
2023-04-25T06:36:39.620Z,0.00
2023-04-25T06:37:40.313Z,0.00
2023-04-25T06:38:41.019Z,0.00
2023-04-25T06:39:41.741Z,0.00
2023-04-25T06:40:42.620Z,0.00
2023-04-25T06:41:43.311Z,0.00
2023-04-25T06:42:44.013Z,0.00
2023-04-25T06:43:44.708Z,0.00
2023-04-25T06:44:45.492Z,0.00
2023-04-25T06:45:48.396Z,0.00
2023-04-25T06:46:46.874Z,0.00
2023-04-25T06:47:47.595Z,0.00
2023-04-25T06:48:48.465Z,0.00
2023-04-25T06:49:48.769Z,0.00
2023-04-25T06:50:49.639Z,0.00
2023-04-25T06:51:50.321Z,0.00
2023-04-25T06:52:51.015Z,0.00
2023-04-25T06:53:51.747Z,0.00
2023-04-25T06:54:52.443Z,0.00
2023-04-25T06:55:53.617Z,0.00
2023-04-25T06:56:53.812Z,0.00
2023-04-25T06:57:54.521Z,0.00
2023-04-25T06:58:55.214Z,0.00
2023-04-25T06:59:55.952Z,0.00
2023-04-25T07:00:57.226Z,0.00
2023-04-25T07:01:57.357Z,0.00
2023-04-25T07:02:58.127Z,0.00
2023-04-25T07:03:59.272Z,0.00
2023-04-25T07:04:59.504Z,0.00
2023-04-25T07:06:00.689Z,0.00
2023-04-25T07:07:00.818Z,0.00
2023-04-25T07:08:01.516Z,0.00
2023-04-25T07:09:02.487Z,0.00
2023-04-25T07:10:03.198Z,0.00
2023-04-25T07:11:03.892Z,0.00
2023-04-25T07:12:04.596Z,0.00
2023-04-25T07:13:05.298Z,0.00
2023-04-25T07:14:06.008Z,0.00
2023-04-25T07:15:06.767Z,0.00
2023-04-25T07:16:07.665Z,0.00
2023-04-25T07:17:08.326Z,0.00
2023-04-25T07:18:09.124Z,0.00
2023-04-25T07:19:09.787Z,0.00
2023-04-25T07:20:10.498Z,0.00
2023-04-25T07:21:11.666Z,0.00
2023-04-25T07:22:11.828Z,0.00
2023-04-25T07:23:12.523Z,0.00
2023-04-25T07:24:13.259Z,0.00
2023-04-25T07:25:13.951Z,0.00
2023-04-25T07:26:15.121Z,0.00
2023-04-25T07:27:15.823Z,0.00
2023-04-25T07:28:18.829Z,0.00
2023-04-25T07:29:17.201Z,0.00
2023-04-25T07:30:17.911Z,0.00
2023-04-25T07:31:18.622Z,0.00
2023-04-25T07:32:19.446Z,0.00
2023-04-25T07:33:20.199Z,0.00
2023-04-25T07:34:20.898Z,0.00
2023-04-25T07:35:21.600Z,0.00
2023-04-25T07:36:22.327Z,0.00
2023-04-25T07:37:23.012Z,0.00
2023-04-25T07:38:23.711Z,0.00
2023-04-25T07:39:24.425Z,0.00
2023-04-25T07:40:25.185Z,0.00
2023-04-25T07:41:26.121Z,0.00
2023-04-25T07:42:26.818Z,0.00
2023-04-25T07:43:27.525Z,0.00
2023-04-25T07:44:28.223Z,0.00
2023-04-25T07:45:28.939Z,0.00
2023-04-25T07:46:30.152Z,0.00
2023-04-25T07:47:30.352Z,0.00
2023-04-25T07:48:31.032Z,0.00
2023-04-25T07:49:31.738Z,0.00
2023-04-25T07:50:32.441Z,0.00
2023-04-25T07:51:33.645Z,0.00
2023-04-25T07:52:33.832Z,0.00
2023-04-25T07:53:34.533Z,0.00
2023-04-25T07:54:35.260Z,0.00
2023-04-25T07:55:36.018Z,0.00
2023-04-25T07:56:49.048Z,0.00
2023-04-25T07:57:38.238Z,0.00
2023-04-25T07:58:37.933Z,0.00
2023-04-25T07:59:38.637Z,0.00
2023-04-25T08:00:39.334Z,0.00
2023-04-25T08:01:40.149Z,0.00
2023-04-25T08:02:40.930Z,0.00
2023-04-25T08:03:41.930Z,0.00
2023-04-25T08:04:42.393Z,0.00
2023-04-25T08:05:43.302Z,0.00
2023-04-25T08:06:44.361Z,0.00
2023-04-25T08:07:44.523Z,0.00
2023-04-25T08:08:45.230Z,0.00
2023-04-25T08:09:45.920Z,0.00
2023-04-25T08:10:46.640Z,0.00
2023-04-25T08:11:47.317Z,0.00
2023-04-25T08:12:48.009Z,0.00
2023-04-25T08:13:48.725Z,0.00
2023-04-25T08:14:49.424Z,0.00
2023-04-25T08:15:50.216Z,0.00
2023-04-25T08:16:50.875Z,0.00
2023-04-25T08:17:51.621Z,0.00
2023-04-25T08:18:52.542Z,0.00
2023-04-25T08:19:52.936Z,0.00
2023-04-25T08:20:53.636Z,0.00
2023-04-25T08:21:54.360Z,0.00
2023-04-25T08:22:55.045Z,0.00
2023-04-25T08:23:55.741Z,0.00
2023-04-25T08:24:56.446Z,0.00
2023-04-25T08:25:57.180Z,0.00
2023-04-25T08:26:57.867Z,0.00
2023-04-25T08:27:58.603Z,0.00
2023-04-25T08:28:59.314Z,1192.50
2023-04-25T08:29:59.999Z,1136.25
2023-04-25T08:31:00.829Z,1147.50
2023-04-25T08:32:01.524Z,1074.38
2023-04-25T08:33:02.299Z,843.75
2023-04-25T08:34:03.046Z,1209.38
2023-04-25T08:35:03.753Z,2013.75
2023-04-25T08:36:04.459Z,1231.88
2023-04-25T08:37:05.773Z,1147.50
2023-04-25T08:38:05.920Z,1518.75
2023-04-25T08:39:06.650Z,1175.62
2023-04-25T08:40:07.366Z,1608.75
2023-04-25T08:41:08.102Z,1063.12
2023-04-25T08:42:09.147Z,1288.12
2023-04-25T08:43:09.346Z,2424.38
2023-04-25T08:44:10.059Z,2413.12
2023-04-25T08:45:10.765Z,1738.12
2023-04-25T08:46:11.488Z,1389.38
2023-04-25T08:47:12.661Z,1575.00
2023-04-25T08:48:12.868Z,1783.12
2023-04-25T08:49:13.541Z,1676.25
2023-04-25T08:50:14.241Z,1080.00
2023-04-25T08:51:15.110Z,1035.00
2023-04-25T08:52:16.170Z,1873.12
2023-04-25T08:53:16.348Z,2503.12
2023-04-25T08:54:34.280Z,1406.25
2023-04-25T08:55:18.682Z,1541.25
2023-04-25T08:56:18.374Z,1220.62
2023-04-25T08:57:19.145Z,1614.38
2023-04-25T08:58:19.836Z,1625.62
2023-04-25T08:59:20.543Z,658.12
2023-04-25T09:00:21.243Z,523.12
2023-04-25T09:01:21.993Z,534.38
2023-04-25T09:02:23.269Z,618.75
2023-04-25T09:03:23.837Z,748.12
2023-04-25T09:04:24.144Z,1006.88
2023-04-25T09:05:24.843Z,1563.75
2023-04-25T09:06:25.539Z,900.00
2023-04-25T09:07:26.675Z,770.62
2023-04-25T09:08:26.859Z,753.75
2023-04-25T09:09:27.566Z,815.62
2023-04-25T09:10:28.277Z,843.75
2023-04-25T09:11:28.986Z,3105.00
2023-04-25T09:12:30.131Z,1670.62
2023-04-25T09:13:30.339Z,1423.12
2023-04-25T09:14:31.050Z,1226.25
2023-04-25T09:15:31.744Z,1057.50
2023-04-25T09:16:33.692Z,1479.38
2023-04-25T09:17:33.723Z,1175.62
2023-04-25T09:18:33.867Z,1012.50
2023-04-25T09:19:39.579Z,973.12
2023-04-25T09:20:40.420Z,1051.88
2023-04-25T09:21:36.781Z,1113.75
2023-04-25T09:22:36.660Z,1299.38
2023-04-25T09:23:37.354Z,1006.88
2023-04-25T09:24:38.062Z,855.00
2023-04-25T09:25:38.782Z,843.75
2023-04-25T09:26:39.512Z,759.38
2023-04-25T09:27:40.644Z,843.75
2023-04-25T09:28:40.845Z,900.00
2023-04-25T09:29:41.579Z,961.88
2023-04-25T09:30:42.245Z,945.00
2023-04-25T09:31:43.041Z,967.50
2023-04-25T09:32:43.740Z,1085.62
2023-04-25T09:33:44.411Z,916.88
2023-04-25T09:34:45.129Z,950.62
2023-04-25T09:35:45.817Z,1001.25
2023-04-25T09:36:47.513Z,990.00
2023-04-25T09:37:47.668Z,1035.00
2023-04-25T09:38:47.845Z,1029.38
2023-04-25T09:39:48.548Z,984.38
2023-04-25T09:40:49.267Z,900.00
2023-04-25T09:41:49.975Z,781.88
2023-04-25T09:42:51.140Z,630.00
2023-04-25T09:43:51.357Z,573.75
2023-04-25T09:44:52.048Z,545.62
2023-04-25T09:45:52.929Z,489.38
2023-04-25T09:46:53.671Z,371.25
2023-04-25T09:47:54.709Z,320.62
2023-04-25T09:48:55.364Z,354.38
2023-04-25T09:49:56.082Z,433.12
2023-04-25T09:50:56.768Z,517.50
2023-04-25T09:51:57.514Z,579.38
2023-04-25T09:52:58.668Z,607.50
2023-04-25T09:53:58.880Z,568.12
2023-04-25T09:54:59.590Z,528.75
2023-04-25T09:56:00.304Z,523.12
2023-04-25T09:57:01.004Z,545.62
2023-04-25T09:58:02.148Z,568.12
2023-04-25T09:59:02.348Z,596.25
2023-04-25T10:00:03.061Z,601.88
2023-04-25T10:01:03.801Z,607.50
2023-04-25T10:02:04.518Z,624.38
2023-04-25T10:03:05.433Z,686.25
2023-04-25T10:04:06.193Z,731.25
2023-04-25T10:05:06.975Z,804.38
2023-04-25T10:06:07.705Z,849.38
2023-04-25T10:07:08.449Z,860.62
2023-04-25T10:08:09.176Z,990.00
2023-04-25T10:09:09.874Z,804.38
2023-04-25T10:10:10.573Z,883.12
2023-04-25T10:11:11.286Z,2930.62
2023-04-25T10:12:12.040Z,3223.12
2023-04-25T10:13:12.741Z,3161.25
2023-04-25T10:14:13.424Z,3234.38
2023-04-25T10:15:14.130Z,3605.62
2023-04-25T10:16:14.909Z,3358.12
2023-04-25T10:17:15.556Z,3481.88
2023-04-25T10:18:16.290Z,3493.12
2023-04-25T10:19:16.974Z,3420.00
2023-04-25T10:20:17.681Z,3988.12
2023-04-25T10:21:18.381Z,3903.75
2023-04-25T10:22:19.086Z,3960.00
2023-04-25T10:23:20.182Z,3830.62
2023-04-25T10:24:20.358Z,3386.25
2023-04-25T10:25:21.068Z,2227.50
2023-04-25T10:26:21.772Z,2593.12
2023-04-25T10:27:22.496Z,916.88
2023-04-25T10:28:23.653Z,922.50
2023-04-25T10:29:23.855Z,821.25
2023-04-25T10:30:24.556Z,680.62
2023-04-25T10:31:25.349Z,568.12
2023-04-25T10:32:26.057Z,523.12
2023-04-25T10:33:26.760Z,500.62
2023-04-25T10:34:27.489Z,500.62
2023-04-25T10:35:28.205Z,618.75
2023-04-25T10:36:28.888Z,950.62
2023-04-25T10:37:29.605Z,1040.62
2023-04-25T10:38:30.380Z,849.38
2023-04-25T10:39:31.018Z,815.62
2023-04-25T10:40:31.736Z,838.12
2023-04-25T10:41:32.423Z,821.25
2023-04-25T10:42:33.155Z,798.75
2023-04-25T10:43:33.821Z,810.00
2023-04-25T10:44:34.549Z,804.38
2023-04-25T10:45:35.254Z,748.12
2023-04-25T10:46:36.062Z,641.25
2023-04-25T10:47:36.926Z,568.12
2023-04-25T10:48:37.618Z,534.38
2023-04-25T10:49:38.340Z,534.38
2023-04-25T10:50:39.026Z,495.00
2023-04-25T10:51:54.505Z,371.25
2023-04-25T10:52:41.369Z,303.75
2023-04-25T10:53:41.266Z,258.75
2023-04-25T10:54:41.899Z,236.25
2023-04-25T10:55:42.603Z,225.00
2023-04-25T10:56:43.310Z,202.50
2023-04-25T10:57:44.045Z,202.50
2023-04-25T10:58:45.178Z,225.00
2023-04-25T10:59:45.385Z,264.38
2023-04-25T11:00:56.750Z,298.12
2023-04-25T11:01:47.771Z,298.12
2023-04-25T11:02:47.800Z,286.88
2023-04-25T11:03:48.597Z,292.50
2023-04-25T11:04:48.932Z,309.38
2023-04-25T11:05:57.868Z,320.62
2023-04-25T11:06:53.720Z,315.00
2023-04-25T11:07:59.961Z,292.50
2023-04-25T11:08:52.973Z,275.62
2023-04-25T11:09:52.400Z,264.38
2023-04-25T11:10:53.097Z,275.62
2023-04-25T11:11:53.798Z,292.50
2023-04-25T11:12:54.530Z,315.00
2023-04-25T11:13:55.226Z,343.12
2023-04-25T11:14:55.930Z,343.12
2023-04-25T11:16:07.180Z,343.12
2023-04-25T11:17:00.164Z,354.38
2023-04-25T11:17:58.016Z,382.50
2023-04-25T11:18:59.182Z,427.50
2023-04-25T11:19:59.379Z,433.12
2023-04-25T11:21:00.080Z,416.25
2023-04-25T11:22:00.932Z,410.62
2023-04-25T11:23:01.643Z,421.88
2023-04-25T11:24:02.786Z,421.88
2023-04-25T11:25:02.933Z,410.62
2023-04-25T11:26:03.634Z,405.00
2023-04-25T11:27:04.340Z,405.00
2023-04-25T11:28:05.124Z,405.00
2023-04-25T11:29:05.832Z,393.75
2023-04-25T11:30:06.486Z,376.88
2023-04-25T11:31:07.205Z,365.62
2023-04-25T11:32:07.942Z,360.00
2023-04-25T11:33:08.613Z,360.00
2023-04-25T11:34:09.310Z,343.12
2023-04-25T11:35:10.022Z,354.38
2023-04-25T11:36:10.721Z,371.25
2023-04-25T11:37:11.428Z,365.62
2023-04-25T11:38:12.143Z,343.12
2023-04-25T11:39:12.872Z,309.38
2023-04-25T11:40:13.605Z,315.00
2023-04-25T11:41:14.288Z,343.12
2023-04-25T11:42:14.983Z,376.88
2023-04-25T11:43:15.710Z,421.88
2023-04-25T11:44:16.693Z,489.38
2023-04-25T11:45:16.896Z,556.88
2023-04-25T11:46:17.682Z,686.25
2023-04-25T11:47:18.383Z,855.00
2023-04-25T11:48:19.156Z,1006.88
2023-04-25T11:49:19.726Z,1057.50
2023-04-25T11:50:20.410Z,1192.50
2023-04-25T11:51:21.142Z,1136.25
2023-04-25T11:52:21.865Z,1276.88
2023-04-25T11:53:22.566Z,1209.38
2023-04-25T11:54:23.696Z,1254.38
2023-04-25T11:55:23.872Z,1130.62
2023-04-25T11:56:24.583Z,1130.62
2023-04-25T11:57:25.294Z,1125.00
2023-04-25T11:58:26.011Z,1119.38
2023-04-25T11:59:26.695Z,1158.75
2023-04-25T12:00:27.396Z,1687.50
2023-04-25T12:01:30.572Z,1473.75
2023-04-25T12:02:29.837Z,2103.75
2023-04-25T12:03:29.818Z,2176.88
2023-04-25T12:04:30.427Z,2272.50
2023-04-25T12:05:33.175Z,3915.00
2023-04-25T12:06:31.460Z,2210.62
2023-04-25T12:07:32.123Z,2581.88
2023-04-25T12:08:32.827Z,2435.62
2023-04-25T12:09:33.577Z,1861.88
2023-04-25T12:10:34.340Z,1136.25
2023-04-25T12:11:35.115Z,1040.62
2023-04-25T12:12:35.812Z,1006.88
2023-04-25T12:13:36.554Z,1006.88
2023-04-25T12:14:37.330Z,900.00
2023-04-25T12:15:38.042Z,798.75
2023-04-25T12:16:38.740Z,731.25
2023-04-25T12:17:39.514Z,697.50
2023-04-25T12:18:41.665Z,697.50
2023-04-25T12:19:40.804Z,691.88
2023-04-25T12:20:41.524Z,641.25
2023-04-25T12:21:54.484Z,630.00
2023-04-25T12:22:43.811Z,624.38
2023-04-25T12:23:43.519Z,630.00
2023-04-25T12:24:44.775Z,697.50
2023-04-25T12:25:45.146Z,1029.38
2023-04-25T12:26:45.915Z,1507.50
2023-04-25T12:27:46.627Z,2086.88
2023-04-25T12:28:47.356Z,2739.38
2023-04-25T12:29:50.008Z,3015.00
2023-04-25T12:30:48.825Z,2143.12
2023-04-25T12:31:49.541Z,3076.88
2023-04-25T12:32:50.400Z,3121.88
2023-04-25T12:33:51.124Z,3223.12
2023-04-25T12:34:52.250Z,3425.62
2023-04-25T12:35:52.422Z,3380.62
2023-04-25T12:36:53.136Z,3431.25
2023-04-25T12:37:53.869Z,3791.25
2023-04-25T12:38:54.580Z,3459.38
2023-04-25T12:39:55.717Z,3577.50
2023-04-25T12:40:55.913Z,866.25
2023-04-25T12:41:56.631Z,776.25
2023-04-25T12:42:57.303Z,1023.75
2023-04-25T12:43:58.026Z,883.12
2023-04-25T12:44:58.695Z,877.50
2023-04-25T12:45:59.399Z,866.25
2023-04-25T12:47:00.160Z,855.00
2023-04-25T12:48:02.076Z,883.12
2023-04-25T12:49:11.773Z,776.25
2023-04-25T12:50:03.689Z,590.62
2023-04-25T12:51:02.892Z,450.00
2023-04-25T12:52:03.612Z,376.88
2023-04-25T12:53:04.345Z,376.88
2023-04-25T12:54:05.034Z,461.25
2023-04-25T12:55:06.218Z,495.00
2023-04-25T12:56:06.404Z,500.62
2023-04-25T12:57:07.117Z,680.62
2023-04-25T12:58:07.821Z,781.88
2023-04-25T12:59:08.541Z,1957.50
2023-04-25T13:00:09.708Z,832.50
2023-04-25T13:01:10.048Z,793.12
2023-04-25T13:02:10.784Z,787.50
2023-04-25T13:03:11.596Z,793.12
2023-04-25T13:04:12.375Z,680.62
2023-04-25T13:05:34.091Z,646.88